sensor_id;sensor_type;location;lat;lon;timestamp;pressure;altitude;pressure_sealevel;temperature;humidity
57250;BME280;43102;52.014;-0.680;2023-01-26T00:00:00;102054;;;4.42;82.44
57250;BME280;43102;52.014;-0.680;2023-01-26T00:01:06;102054;;;4.42;82.44
57250;BME280;43102;52.014;-0.680;2023-01-26T00:02:00;102054;;;4.42;82.44
57250;BME280;43102;52.014;-0.680;2023-01-26T00:03:00;102054;;;4.42;82.44
57250;BME280;43102;52.014;-0.680;2023-01-26T00:04:00;102054;;;4.42;82.44
57250;BME280;43102;52.014;-0.680;2023-01-26T00:05:00;102043;;;4.40;82.15
57250;BME280;43102;52.014;-0.680;2023-01-26T00:06:04;102043;;;4.40;82.15
57250;BME280;43102;52.014;-0.680;2023-01-26T00:07:00;102043;;;4.40;82.15
57250;BME280;43102;52.014;-0.680;2023-01-26T00:08:00;102043;;;4.40;82.15
57250;BME280;43102;52.014;-0.680;2023-01-26T00:09:00;102043;;;4.40;82.15
57250;BME280;43102;52.014;-0.680;2023-01-26T00:10:00;102050;;;4.32;82.27
57250;BME280;43102;52.014;-0.680;2023-01-26T00:11:02;102050;;;4.32;82.27
57250;BME280;43102;52.014;-0.680;2023-01-26T00:12:00;102050;;;4.32;82.27
57250;BME280;43102;52.014;-0.680;2023-01-26T00:13:00;102050;;;4.32;82.27
57250;BME280;43102;52.014;-0.680;2023-01-26T00:14:00;102050;;;4.32;82.27
57250;BME280;43102;52.014;-0.680;2023-01-26T00:15:00;102042;;;4.23;82.11
57250;BME280;43102;52.014;-0.680;2023-01-26T00:16:00;102042;;;4.23;82.11
57250;BME280;43102;52.014;-0.680;2023-01-26T00:17:00;102042;;;4.23;82.11
57250;BME280;43102;52.014;-0.680;2023-01-26T00:18:00;102042;;;4.23;82.11
57250;BME280;43102;52.014;-0.680;2023-01-26T00:19:00;102042;;;4.23;82.11
57250;BME280;43102;52.014;-0.680;2023-01-26T00:20:00;102044;;;4.20;82.02
57250;BME280;43102;52.014;-0.680;2023-01-26T00:21:00;102044;;;4.20;82.02
57250;BME280;43102;52.014;-0.680;2023-01-26T00:22:00;102044;;;4.20;82.02
57250;BME280;43102;52.014;-0.680;2023-01-26T00:23:00;102044;;;4.20;82.02
57250;BME280;43102;52.014;-0.680;2023-01-26T00:24:00;102044;;;4.20;82.02
57250;BME280;43102;52.014;-0.680;2023-01-26T00:25:00;102042;;;4.20;81.95
57250;BME280;43102;52.014;-0.680;2023-01-26T00:26:00;102042;;;4.20;81.95
57250;BME280;43102;52.014;-0.680;2023-01-26T00:27:00;102042;;;4.20;81.95
57250;BME280;43102;52.014;-0.680;2023-01-26T00:28:00;102042;;;4.20;81.95
57250;BME280;43102;52.014;-0.680;2023-01-26T00:29:00;102042;;;4.20;81.95
57250;BME280;43102;52.014;-0.680;2023-01-26T00:30:00;102044;;;4.14;81.88
57250;BME280;43102;52.014;-0.680;2023-01-26T00:31:09;102044;;;4.14;81.88
57250;BME280;43102;52.014;-0.680;2023-01-26T00:32:00;102044;;;4.14;81.88
57250;BME280;43102;52.014;-0.680;2023-01-26T00:33:00;102044;;;4.14;81.88
57250;BME280;43102;52.014;-0.680;2023-01-26T00:34:00;102044;;;4.14;81.88
57250;BME280;43102;52.014;-0.680;2023-01-26T00:35:00;102050;;;4.10;81.79
57250;BME280;43102;52.014;-0.680;2023-01-26T00:36:00;102050;;;4.10;81.79
57250;BME280;43102;52.014;-0.680;2023-01-26T00:37:00;102050;;;4.10;81.79
57250;BME280;43102;52.014;-0.680;2023-01-26T00:38:00;102050;;;4.10;81.79
57250;BME280;43102;52.014;-0.680;2023-01-26T00:39:00;102050;;;4.10;81.79
57250;BME280;43102;52.014;-0.680;2023-01-26T00:40:00;102049;;;4.09;81.71
57250;BME280;43102;52.014;-0.680;2023-01-26T00:41:00;102049;;;4.09;81.71
57250;BME280;43102;52.014;-0.680;2023-01-26T00:42:00;102049;;;4.09;81.71
57250;BME280;43102;52.014;-0.680;2023-01-26T00:43:00;102049;;;4.09;81.71
57250;BME280;43102;52.014;-0.680;2023-01-26T00:44:00;102049;;;4.09;81.71
57250;BME280;43102;52.014;-0.680;2023-01-26T00:45:00;102046;;;4.03;81.60
57250;BME280;43102;52.014;-0.680;2023-01-26T00:46:00;102046;;;4.03;81.60
57250;BME280;43102;52.014;-0.680;2023-01-26T00:47:00;102046;;;4.03;81.60
57250;BME280;43102;52.014;-0.680;2023-01-26T00:48:00;102046;;;4.03;81.60
57250;BME280;43102;52.014;-0.680;2023-01-26T00:49:00;102046;;;4.03;81.60
57250;BME280;43102;52.014;-0.680;2023-01-26T00:50:00;102045;;;3.98;81.61
57250;BME280;43102;52.014;-0.680;2023-01-26T00:51:00;102045;;;3.98;81.61
57250;BME280;43102;52.014;-0.680;2023-01-26T00:52:00;102045;;;3.98;81.61
57250;BME280;43102;52.014;-0.680;2023-01-26T00:53:00;102045;;;3.98;81.61
57250;BME280;43102;52.014;-0.680;2023-01-26T00:54:00;102045;;;3.98;81.61
57250;BME280;43102;52.014;-0.680;2023-01-26T00:55:00;102047;;;3.93;81.71
57250;BME280;43102;52.014;-0.680;2023-01-26T00:56:00;102047;;;3.93;81.71
57250;BME280;43102;52.014;-0.680;2023-01-26T00:57:00;102047;;;3.93;81.71
57250;BME280;43102;52.014;-0.680;2023-01-26T00:58:00;102047;;;3.93;81.71
57250;BME280;43102;52.014;-0.680;2023-01-26T00:59:00;102047;;;3.93;81.71
57250;BME280;43102;52.014;-0.680;2023-01-26T01:00:00;102048;;;3.87;81.56
57250;BME280;43102;52.014;-0.680;2023-01-26T01:01:00;102048;;;3.87;81.56
57250;BME280;43102;52.014;-0.680;2023-01-26T01:02:00;102048;;;3.87;81.56
57250;BME280;43102;52.014;-0.680;2023-01-26T01:03:00;102048;;;3.87;81.56
57250;BME280;43102;52.014;-0.680;2023-01-26T01:04:00;102048;;;3.87;81.56
57250;BME280;43102;52.014;-0.680;2023-01-26T01:05:00;102052;;;3.79;81.69
57250;BME280;43102;52.014;-0.680;2023-01-26T01:06:00;102052;;;3.79;81.69
57250;BME280;43102;52.014;-0.680;2023-01-26T01:07:00;102052;;;3.79;81.69
57250;BME280;43102;52.014;-0.680;2023-01-26T01:08:00;102052;;;3.79;81.69
57250;BME280;43102;52.014;-0.680;2023-01-26T01:09:00;102052;;;3.79;81.69
57250;BME280;43102;52.014;-0.680;2023-01-26T01:10:00;102049;;;3.79;81.59
57250;BME280;43102;52.014;-0.680;2023-01-26T01:11:02;102049;;;3.79;81.59
57250;BME280;43102;52.014;-0.680;2023-01-26T01:12:00;102049;;;3.79;81.59
57250;BME280;43102;52.014;-0.680;2023-01-26T01:13:00;102049;;;3.79;81.59
57250;BME280;43102;52.014;-0.680;2023-01-26T01:14:00;102049;;;3.79;81.59
57250;BME280;43102;52.014;-0.680;2023-01-26T01:15:00;102041;;;3.75;81.52
57250;BME280;43102;52.014;-0.680;2023-01-26T01:16:03;102041;;;3.75;81.52
57250;BME280;43102;52.014;-0.680;2023-01-26T01:17:00;102041;;;3.75;81.52
57250;BME280;43102;52.014;-0.680;2023-01-26T01:18:00;102041;;;3.75;81.52
57250;BME280;43102;52.014;-0.680;2023-01-26T01:19:00;102041;;;3.75;81.52
57250;BME280;43102;52.014;-0.680;2023-01-26T01:20:00;102048;;;3.81;81.20
57250;BME280;43102;52.014;-0.680;2023-01-26T01:21:03;102048;;;3.81;81.20
57250;BME280;43102;52.014;-0.680;2023-01-26T01:22:00;102048;;;3.81;81.20
57250;BME280;43102;52.014;-0.680;2023-01-26T01:23:00;102048;;;3.81;81.20
57250;BME280;43102;52.014;-0.680;2023-01-26T01:24:00;102048;;;3.81;81.20
57250;BME280;43102;52.014;-0.680;2023-01-26T01:25:00;102044;;;3.86;81.18
57250;BME280;43102;52.014;-0.680;2023-01-26T01:26:00;102044;;;3.86;81.18
57250;BME280;43102;52.014;-0.680;2023-01-26T01:27:00;102044;;;3.86;81.18
57250;BME280;43102;52.014;-0.680;2023-01-26T01:28:00;102044;;;3.86;81.18
57250;BME280;43102;52.014;-0.680;2023-01-26T01:29:00;102044;;;3.86;81.18
57250;BME280;43102;52.014;-0.680;2023-01-26T01:30:00;102051;;;4.02;80.67
57250;BME280;43102;52.014;-0.680;2023-01-26T01:31:08;102051;;;4.02;80.67
57250;BME280;43102;52.014;-0.680;2023-01-26T01:32:00;102051;;;4.02;80.67
57250;BME280;43102;52.014;-0.680;2023-01-26T01:33:00;102051;;;4.02;80.67
57250;BME280;43102;52.014;-0.680;2023-01-26T01:34:00;102051;;;4.02;80.67
57250;BME280;43102;52.014;-0.680;2023-01-26T01:35:00;102056;;;4.07;80.59
57250;BME280;43102;52.014;-0.680;2023-01-26T01:36:02;102056;;;4.07;80.59
57250;BME280;43102;52.014;-0.680;2023-01-26T01:37:00;102056;;;4.07;80.59
57250;BME280;43102;52.014;-0.680;2023-01-26T01:38:00;102056;;;4.07;80.59
57250;BME280;43102;52.014;-0.680;2023-01-26T01:39:00;102056;;;4.07;80.59
57250;BME280;43102;52.014;-0.680;2023-01-26T01:40:00;102056;;;4.12;80.56
57250;BME280;43102;52.014;-0.680;2023-01-26T01:41:00;102056;;;4.12;80.56
57250;BME280;43102;52.014;-0.680;2023-01-26T01:42:00;102056;;;4.12;80.56
57250;BME280;43102;52.014;-0.680;2023-01-26T01:43:00;102056;;;4.12;80.56
57250;BME280;43102;52.014;-0.680;2023-01-26T01:44:17;102056;;;4.12;80.56
57250;BME280;43102;52.014;-0.680;2023-01-26T01:46:00;102063;;;4.07;80.68
57250;BME280;43102;52.014;-0.680;2023-01-26T01:47:01;102063;;;4.07;80.68
57250;BME280;43102;52.014;-0.680;2023-01-26T01:48:00;102063;;;4.07;80.68
57250;BME280;43102;52.014;-0.680;2023-01-26T01:49:01;102063;;;4.07;80.68
57250;BME280;43102;52.014;-0.680;2023-01-26T01:50:00;102059;;;4.17;80.31
57250;BME280;43102;52.014;-0.680;2023-01-26T01:51:02;102059;;;4.17;80.31
57250;BME280;43102;52.014;-0.680;2023-01-26T01:52:03;102059;;;4.17;80.31
57250;BME280;43102;52.014;-0.680;2023-01-26T01:53:00;102059;;;4.17;80.31
57250;BME280;43102;52.014;-0.680;2023-01-26T01:54:02;102059;;;4.17;80.31
57250;BME280;43102;52.014;-0.680;2023-01-26T01:55:02;102065;;;4.23;79.96
57250;BME280;43102;52.014;-0.680;2023-01-26T01:56:02;102065;;;4.23;79.96
57250;BME280;43102;52.014;-0.680;2023-01-26T01:57:01;102065;;;4.23;79.96
57250;BME280;43102;52.014;-0.680;2023-01-26T01:58:00;102065;;;4.23;79.96
57250;BME280;43102;52.014;-0.680;2023-01-26T01:59:00;102065;;;4.23;79.96
57250;BME280;43102;52.014;-0.680;2023-01-26T02:00:03;102070;;;4.24;80.01
57250;BME280;43102;52.014;-0.680;2023-01-26T02:01:00;102070;;;4.24;80.01
57250;BME280;43102;52.014;-0.680;2023-01-26T02:02:00;102070;;;4.24;80.01
57250;BME280;43102;52.014;-0.680;2023-01-26T02:03:00;102070;;;4.24;80.01
57250;BME280;43102;52.014;-0.680;2023-01-26T02:04:00;102070;;;4.24;80.01
57250;BME280;43102;52.014;-0.680;2023-01-26T02:05:02;102067;;;4.29;79.81
57250;BME280;43102;52.014;-0.680;2023-01-26T02:06:02;102067;;;4.29;79.81
57250;BME280;43102;52.014;-0.680;2023-01-26T02:07:00;102067;;;4.29;79.81
57250;BME280;43102;52.014;-0.680;2023-01-26T02:08:00;102067;;;4.29;79.81
57250;BME280;43102;52.014;-0.680;2023-01-26T02:09:00;102067;;;4.29;79.81
57250;BME280;43102;52.014;-0.680;2023-01-26T02:10:00;102066;;;4.33;79.67
57250;BME280;43102;52.014;-0.680;2023-01-26T02:11:02;102066;;;4.33;79.67
57250;BME280;43102;52.014;-0.680;2023-01-26T02:12:01;102066;;;4.33;79.67
57250;BME280;43102;52.014;-0.680;2023-01-26T02:13:00;102066;;;4.33;79.67
57250;BME280;43102;52.014;-0.680;2023-01-26T02:14:01;102066;;;4.33;79.67
57250;BME280;43102;52.014;-0.680;2023-01-26T02:15:00;102064;;;4.41;79.34
57250;BME280;43102;52.014;-0.680;2023-01-26T02:16:00;102064;;;4.41;79.34
57250;BME280;43102;52.014;-0.680;2023-01-26T02:17:00;102064;;;4.41;79.34
57250;BME280;43102;52.014;-0.680;2023-01-26T02:18:00;102064;;;4.41;79.34
57250;BME280;43102;52.014;-0.680;2023-01-26T02:19:00;102064;;;4.41;79.34
57250;BME280;43102;52.014;-0.680;2023-01-26T02:20:03;102072;;;4.32;79.60
57250;BME280;43102;52.014;-0.680;2023-01-26T02:21:02;102072;;;4.32;79.60
57250;BME280;43102;52.014;-0.680;2023-01-26T02:22:01;102072;;;4.32;79.60
57250;BME280;43102;52.014;-0.680;2023-01-26T02:25:01;102078;;;4.38;79.38
57250;BME280;43102;52.014;-0.680;2023-01-26T02:26:02;102078;;;4.38;79.38
57250;BME280;43102;52.014;-0.680;2023-01-26T02:27:00;102078;;;4.38;79.38
57250;BME280;43102;52.014;-0.680;2023-01-26T02:28:00;102078;;;4.38;79.38
57250;BME280;43102;52.014;-0.680;2023-01-26T02:29:00;102078;;;4.38;79.38
57250;BME280;43102;52.014;-0.680;2023-01-26T02:30:00;102070;;;4.33;79.44
57250;BME280;43102;52.014;-0.680;2023-01-26T02:31:00;102070;;;4.33;79.44
57250;BME280;43102;52.014;-0.680;2023-01-26T02:32:00;102070;;;4.33;79.44
57250;BME280;43102;52.014;-0.680;2023-01-26T02:33:00;102070;;;4.33;79.44
57250;BME280;43102;52.014;-0.680;2023-01-26T02:34:00;102070;;;4.33;79.44
57250;BME280;43102;52.014;-0.680;2023-01-26T02:35:00;102071;;;4.38;79.27
57250;BME280;43102;52.014;-0.680;2023-01-26T02:36:00;102071;;;4.38;79.27
57250;BME280;43102;52.014;-0.680;2023-01-26T02:37:00;102071;;;4.38;79.27
57250;BME280;43102;52.014;-0.680;2023-01-26T02:38:00;102071;;;4.38;79.27
57250;BME280;43102;52.014;-0.680;2023-01-26T02:40:03;102078;;;4.34;79.15
57250;BME280;43102;52.014;-0.680;2023-01-26T02:41:01;102078;;;4.34;79.15
57250;BME280;43102;52.014;-0.680;2023-01-26T02:42:00;102078;;;4.34;79.15
57250;BME280;43102;52.014;-0.680;2023-01-26T02:43:00;102078;;;4.34;79.15
57250;BME280;43102;52.014;-0.680;2023-01-26T02:44:01;102078;;;4.34;79.15
57250;BME280;43102;52.014;-0.680;2023-01-26T02:45:00;102077;;;4.35;79.05
57250;BME280;43102;52.014;-0.680;2023-01-26T02:46:00;102077;;;4.35;79.05
57250;BME280;43102;52.014;-0.680;2023-01-26T02:47:00;102077;;;4.35;79.05
57250;BME280;43102;52.014;-0.680;2023-01-26T02:48:00;102077;;;4.35;79.05
57250;BME280;43102;52.014;-0.680;2023-01-26T02:49:00;102077;;;4.35;79.05
57250;BME280;43102;52.014;-0.680;2023-01-26T02:50:00;102078;;;4.42;78.74
57250;BME280;43102;52.014;-0.680;2023-01-26T02:51:00;102078;;;4.42;78.74
57250;BME280;43102;52.014;-0.680;2023-01-26T02:52:00;102078;;;4.42;78.74
57250;BME280;43102;52.014;-0.680;2023-01-26T02:53:02;102078;;;4.42;78.74
57250;BME280;43102;52.014;-0.680;2023-01-26T02:54:00;102078;;;4.42;78.74
57250;BME280;43102;52.014;-0.680;2023-01-26T02:55:00;102074;;;4.45;78.62
57250;BME280;43102;52.014;-0.680;2023-01-26T02:56:00;102074;;;4.45;78.62
57250;BME280;43102;52.014;-0.680;2023-01-26T02:57:01;102074;;;4.45;78.62
57250;BME280;43102;52.014;-0.680;2023-01-26T02:58:01;102074;;;4.45;78.62
57250;BME280;43102;52.014;-0.680;2023-01-26T02:59:00;102074;;;4.45;78.62
57250;BME280;43102;52.014;-0.680;2023-01-26T03:00:00;102078;;;4.32;78.86
57250;BME280;43102;52.014;-0.680;2023-01-26T03:01:00;102078;;;4.32;78.86
57250;BME280;43102;52.014;-0.680;2023-01-26T03:02:00;102078;;;4.32;78.86
57250;BME280;43102;52.014;-0.680;2023-01-26T03:03:00;102078;;;4.32;78.86
57250;BME280;43102;52.014;-0.680;2023-01-26T03:04:00;102078;;;4.32;78.86
57250;BME280;43102;52.014;-0.680;2023-01-26T03:05:00;102084;;;4.43;78.62
57250;BME280;43102;52.014;-0.680;2023-01-26T03:06:00;102084;;;4.43;78.62
57250;BME280;43102;52.014;-0.680;2023-01-26T03:07:00;102084;;;4.43;78.62
57250;BME280;43102;52.014;-0.680;2023-01-26T03:08:00;102084;;;4.43;78.62
57250;BME280;43102;52.014;-0.680;2023-01-26T03:09:00;102084;;;4.43;78.62
57250;BME280;43102;52.014;-0.680;2023-01-26T03:10:00;102089;;;4.44;78.43
57250;BME280;43102;52.014;-0.680;2023-01-26T03:11:00;102089;;;4.44;78.43
57250;BME280;43102;52.014;-0.680;2023-01-26T03:12:00;102089;;;4.44;78.43
57250;BME280;43102;52.014;-0.680;2023-01-26T03:13:00;102089;;;4.44;78.43
57250;BME280;43102;52.014;-0.680;2023-01-26T03:14:00;102089;;;4.44;78.43
57250;BME280;43102;52.014;-0.680;2023-01-26T03:15:00;102087;;;4.46;78.35
57250;BME280;43102;52.014;-0.680;2023-01-26T03:16:00;102087;;;4.46;78.35
57250;BME280;43102;52.014;-0.680;2023-01-26T03:17:00;102087;;;4.46;78.35
57250;BME280;43102;52.014;-0.680;2023-01-26T03:18:02;102087;;;4.46;78.35
57250;BME280;43102;52.014;-0.680;2023-01-26T03:19:00;102087;;;4.46;78.35
57250;BME280;43102;52.014;-0.680;2023-01-26T03:20:00;102081;;;4.38;78.56
57250;BME280;43102;52.014;-0.680;2023-01-26T03:21:00;102081;;;4.38;78.56
57250;BME280;43102;52.014;-0.680;2023-01-26T03:22:00;102081;;;4.38;78.56
57250;BME280;43102;52.014;-0.680;2023-01-26T03:23:00;102081;;;4.38;78.56
57250;BME280;43102;52.014;-0.680;2023-01-26T03:24:00;102081;;;4.38;78.56
57250;BME280;43102;52.014;-0.680;2023-01-26T03:25:00;102091;;;4.35;78.37
57250;BME280;43102;52.014;-0.680;2023-01-26T03:26:00;102091;;;4.35;78.37
57250;BME280;43102;52.014;-0.680;2023-01-26T03:27:00;102091;;;4.35;78.37
57250;BME280;43102;52.014;-0.680;2023-01-26T03:28:00;102091;;;4.35;78.37
57250;BME280;43102;52.014;-0.680;2023-01-26T03:29:00;102091;;;4.35;78.37
57250;BME280;43102;52.014;-0.680;2023-01-26T03:30:00;102089;;;4.39;77.93
57250;BME280;43102;52.014;-0.680;2023-01-26T03:31:00;102089;;;4.39;77.93
57250;BME280;43102;52.014;-0.680;2023-01-26T03:32:00;102089;;;4.39;77.93
57250;BME280;43102;52.014;-0.680;2023-01-26T03:33:00;102089;;;4.39;77.93
57250;BME280;43102;52.014;-0.680;2023-01-26T03:34:00;102089;;;4.39;77.93
57250;BME280;43102;52.014;-0.680;2023-01-26T03:35:00;102090;;;4.40;77.99
57250;BME280;43102;52.014;-0.680;2023-01-26T03:36:00;102090;;;4.40;77.99
57250;BME280;43102;52.014;-0.680;2023-01-26T03:37:00;102090;;;4.40;77.99
57250;BME280;43102;52.014;-0.680;2023-01-26T03:38:00;102090;;;4.40;77.99
57250;BME280;43102;52.014;-0.680;2023-01-26T03:39:00;102090;;;4.40;77.99
57250;BME280;43102;52.014;-0.680;2023-01-26T03:40:00;102094;;;4.35;78.11
57250;BME280;43102;52.014;-0.680;2023-01-26T03:41:00;102094;;;4.35;78.11
57250;BME280;43102;52.014;-0.680;2023-01-26T03:42:00;102094;;;4.35;78.11
57250;BME280;43102;52.014;-0.680;2023-01-26T03:43:05;102094;;;4.35;78.11
57250;BME280;43102;52.014;-0.680;2023-01-26T03:44:00;102094;;;4.35;78.11
57250;BME280;43102;52.014;-0.680;2023-01-26T03:45:00;102091;;;4.29;78.15
57250;BME280;43102;52.014;-0.680;2023-01-26T03:46:03;102091;;;4.29;78.15
57250;BME280;43102;52.014;-0.680;2023-01-26T03:47:00;102091;;;4.29;78.15
57250;BME280;43102;52.014;-0.680;2023-01-26T03:48:08;102091;;;4.29;78.15
57250;BME280;43102;52.014;-0.680;2023-01-26T03:49:00;102091;;;4.29;78.15
57250;BME280;43102;52.014;-0.680;2023-01-26T03:50:00;102096;;;4.28;78.27
57250;BME280;43102;52.014;-0.680;2023-01-26T03:51:00;102096;;;4.28;78.27
57250;BME280;43102;52.014;-0.680;2023-01-26T03:52:00;102096;;;4.28;78.27
57250;BME280;43102;52.014;-0.680;2023-01-26T03:53:00;102096;;;4.28;78.27
57250;BME280;43102;52.014;-0.680;2023-01-26T03:54:00;102096;;;4.28;78.27
57250;BME280;43102;52.014;-0.680;2023-01-26T03:55:00;102097;;;4.26;78.24
57250;BME280;43102;52.014;-0.680;2023-01-26T03:56:00;102097;;;4.26;78.24
57250;BME280;43102;52.014;-0.680;2023-01-26T03:57:00;102097;;;4.26;78.24
57250;BME280;43102;52.014;-0.680;2023-01-26T03:58:00;102097;;;4.26;78.24
57250;BME280;43102;52.014;-0.680;2023-01-26T03:59:01;102097;;;4.26;78.24
57250;BME280;43102;52.014;-0.680;2023-01-26T04:00:00;102091;;;4.34;77.86
57250;BME280;43102;52.014;-0.680;2023-01-26T04:01:00;102091;;;4.34;77.86
57250;BME280;43102;52.014;-0.680;2023-01-26T04:02:00;102091;;;4.34;77.86
57250;BME280;43102;52.014;-0.680;2023-01-26T04:03:00;102091;;;4.34;77.86
57250;BME280;43102;52.014;-0.680;2023-01-26T04:04:00;102091;;;4.34;77.86
57250;BME280;43102;52.014;-0.680;2023-01-26T04:05:00;102095;;;4.25;78.13
57250;BME280;43102;52.014;-0.680;2023-01-26T04:06:00;102095;;;4.25;78.13
57250;BME280;43102;52.014;-0.680;2023-01-26T04:07:00;102095;;;4.25;78.13
57250;BME280;43102;52.014;-0.680;2023-01-26T04:08:01;102095;;;4.25;78.13
57250;BME280;43102;52.014;-0.680;2023-01-26T04:09:00;102095;;;4.25;78.13
57250;BME280;43102;52.014;-0.680;2023-01-26T04:10:00;102104;;;4.20;78.19
57250;BME280;43102;52.014;-0.680;2023-01-26T04:11:00;102104;;;4.20;78.19
57250;BME280;43102;52.014;-0.680;2023-01-26T04:12:00;102104;;;4.20;78.19
57250;BME280;43102;52.014;-0.680;2023-01-26T04:13:00;102104;;;4.20;78.19
57250;BME280;43102;52.014;-0.680;2023-01-26T04:14:00;102104;;;4.20;78.19
57250;BME280;43102;52.014;-0.680;2023-01-26T04:15:00;102099;;;4.19;78.17
57250;BME280;43102;52.014;-0.680;2023-01-26T04:16:00;102099;;;4.19;78.17
57250;BME280;43102;52.014;-0.680;2023-01-26T04:17:00;102099;;;4.19;78.17
57250;BME280;43102;52.014;-0.680;2023-01-26T04:18:04;102099;;;4.19;78.17
57250;BME280;43102;52.014;-0.680;2023-01-26T04:19:00;102099;;;4.19;78.17
57250;BME280;43102;52.014;-0.680;2023-01-26T04:20:00;102107;;;4.12;78.14
57250;BME280;43102;52.014;-0.680;2023-01-26T04:21:02;102107;;;4.12;78.14
57250;BME280;43102;52.014;-0.680;2023-01-26T04:22:00;102107;;;4.12;78.14
57250;BME280;43102;52.014;-0.680;2023-01-26T04:23:00;102107;;;4.12;78.14
57250;BME280;43102;52.014;-0.680;2023-01-26T04:24:00;102107;;;4.12;78.14
57250;BME280;43102;52.014;-0.680;2023-01-26T04:25:00;102106;;;4.01;78.42
57250;BME280;43102;52.014;-0.680;2023-01-26T04:26:00;102106;;;4.01;78.42
57250;BME280;43102;52.014;-0.680;2023-01-26T04:27:00;102106;;;4.01;78.42
57250;BME280;43102;52.014;-0.680;2023-01-26T04:28:00;102106;;;4.01;78.42
57250;BME280;43102;52.014;-0.680;2023-01-26T04:29:00;102106;;;4.01;78.42
57250;BME280;43102;52.014;-0.680;2023-01-26T04:30:00;102106;;;3.91;78.62
57250;BME280;43102;52.014;-0.680;2023-01-26T04:31:00;102106;;;3.91;78.62
57250;BME280;43102;52.014;-0.680;2023-01-26T04:32:00;102106;;;3.91;78.62
57250;BME280;43102;52.014;-0.680;2023-01-26T04:33:00;102106;;;3.91;78.62
57250;BME280;43102;52.014;-0.680;2023-01-26T04:34:00;102106;;;3.91;78.62
57250;BME280;43102;52.014;-0.680;2023-01-26T04:35:00;102103;;;3.96;78.35
57250;BME280;43102;52.014;-0.680;2023-01-26T04:36:03;102103;;;3.96;78.35
57250;BME280;43102;52.014;-0.680;2023-01-26T04:37:00;102103;;;3.96;78.35
57250;BME280;43102;52.014;-0.680;2023-01-26T04:38:00;102103;;;3.96;78.35
57250;BME280;43102;52.014;-0.680;2023-01-26T04:39:00;102103;;;3.96;78.35
57250;BME280;43102;52.014;-0.680;2023-01-26T04:40:00;102105;;;3.89;78.57
57250;BME280;43102;52.014;-0.680;2023-01-26T04:41:00;102105;;;3.89;78.57
57250;BME280;43102;52.014;-0.680;2023-01-26T04:42:00;102105;;;3.89;78.57
57250;BME280;43102;52.014;-0.680;2023-01-26T04:43:00;102105;;;3.89;78.57
57250;BME280;43102;52.014;-0.680;2023-01-26T04:44:00;102105;;;3.89;78.57
57250;BME280;43102;52.014;-0.680;2023-01-26T04:45:00;102116;;;3.89;78.60
57250;BME280;43102;52.014;-0.680;2023-01-26T04:46:01;102116;;;3.89;78.60
57250;BME280;43102;52.014;-0.680;2023-01-26T04:47:00;102116;;;3.89;78.60
57250;BME280;43102;52.014;-0.680;2023-01-26T04:48:00;102116;;;3.89;78.60
57250;BME280;43102;52.014;-0.680;2023-01-26T04:49:00;102116;;;3.89;78.60
57250;BME280;43102;52.014;-0.680;2023-01-26T04:50:00;102119;;;3.81;78.85
57250;BME280;43102;52.014;-0.680;2023-01-26T04:51:01;102119;;;3.81;78.85
57250;BME280;43102;52.014;-0.680;2023-01-26T04:52:00;102119;;;3.81;78.85
57250;BME280;43102;52.014;-0.680;2023-01-26T04:53:00;102119;;;3.81;78.85
57250;BME280;43102;52.014;-0.680;2023-01-26T04:54:00;102119;;;3.81;78.85
57250;BME280;43102;52.014;-0.680;2023-01-26T04:55:00;102115;;;3.76;79.28
57250;BME280;43102;52.014;-0.680;2023-01-26T04:56:00;102115;;;3.76;79.28
57250;BME280;43102;52.014;-0.680;2023-01-26T04:57:00;102115;;;3.76;79.28
57250;BME280;43102;52.014;-0.680;2023-01-26T04:58:00;102115;;;3.76;79.28
57250;BME280;43102;52.014;-0.680;2023-01-26T04:59:02;102115;;;3.76;79.28
57250;BME280;43102;52.014;-0.680;2023-01-26T05:00:00;102121;;;3.80;79.13
57250;BME280;43102;52.014;-0.680;2023-01-26T05:01:00;102121;;;3.80;79.13
57250;BME280;43102;52.014;-0.680;2023-01-26T05:02:00;102121;;;3.80;79.13
57250;BME280;43102;52.014;-0.680;2023-01-26T05:03:00;102121;;;3.80;79.13
57250;BME280;43102;52.014;-0.680;2023-01-26T05:04:00;102121;;;3.80;79.13
57250;BME280;43102;52.014;-0.680;2023-01-26T05:05:00;102123;;;3.91;78.67
57250;BME280;43102;52.014;-0.680;2023-01-26T05:06:00;102123;;;3.91;78.67
57250;BME280;43102;52.014;-0.680;2023-01-26T05:07:00;102123;;;3.91;78.67
57250;BME280;43102;52.014;-0.680;2023-01-26T05:08:00;102123;;;3.91;78.67
57250;BME280;43102;52.014;-0.680;2023-01-26T05:09:00;102123;;;3.91;78.67
57250;BME280;43102;52.014;-0.680;2023-01-26T05:10:00;102128;;;3.87;78.68
57250;BME280;43102;52.014;-0.680;2023-01-26T05:11:00;102128;;;3.87;78.68
57250;BME280;43102;52.014;-0.680;2023-01-26T05:12:00;102128;;;3.87;78.68
57250;BME280;43102;52.014;-0.680;2023-01-26T05:13:00;102128;;;3.87;78.68
57250;BME280;43102;52.014;-0.680;2023-01-26T05:14:00;102128;;;3.87;78.68
57250;BME280;43102;52.014;-0.680;2023-01-26T05:15:00;102120;;;3.90;78.76
57250;BME280;43102;52.014;-0.680;2023-01-26T05:16:01;102120;;;3.90;78.76
57250;BME280;43102;52.014;-0.680;2023-01-26T05:17:00;102120;;;3.90;78.76
57250;BME280;43102;52.014;-0.680;2023-01-26T05:18:00;102120;;;3.90;78.76
57250;BME280;43102;52.014;-0.680;2023-01-26T05:19:00;102120;;;3.90;78.76
57250;BME280;43102;52.014;-0.680;2023-01-26T05:20:00;102115;;;3.90;78.86
57250;BME280;43102;52.014;-0.680;2023-01-26T05:21:00;102115;;;3.90;78.86
57250;BME280;43102;52.014;-0.680;2023-01-26T05:22:00;102115;;;3.90;78.86
57250;BME280;43102;52.014;-0.680;2023-01-26T05:23:00;102115;;;3.90;78.86
57250;BME280;43102;52.014;-0.680;2023-01-26T05:24:00;102115;;;3.90;78.86
57250;BME280;43102;52.014;-0.680;2023-01-26T05:25:00;102117;;;3.83;79.09
57250;BME280;43102;52.014;-0.680;2023-01-26T05:26:00;102117;;;3.83;79.09
57250;BME280;43102;52.014;-0.680;2023-01-26T05:27:00;102117;;;3.83;79.09
57250;BME280;43102;52.014;-0.680;2023-01-26T05:28:00;102117;;;3.83;79.09
57250;BME280;43102;52.014;-0.680;2023-01-26T05:29:00;102117;;;3.83;79.09
57250;BME280;43102;52.014;-0.680;2023-01-26T05:30:00;102121;;;3.75;79.49